createdAt,value
2019-05-20T00:00:53.567Z,99.90
2019-05-20T00:03:23.446Z,99.90
2019-05-20T00:05:53.495Z,99.90
2019-05-20T00:08:23.528Z,99.90
2019-05-20T00:10:53.350Z,99.90
2019-05-20T00:13:23.459Z,99.90
2019-05-20T00:15:53.337Z,99.90
2019-05-20T00:18:23.190Z,99.90
2019-05-20T00:20:53.063Z,99.90
2019-05-20T00:23:22.968Z,99.90
2019-05-20T00:25:52.800Z,99.90
2019-05-20T00:28:22.620Z,99.90
2019-05-20T00:30:52.455Z,99.90
2019-05-20T00:33:22.270Z,99.90
2019-05-20T00:35:52.155Z,99.90
2019-05-20T00:38:22.046Z,99.90
2019-05-20T00:40:51.986Z,99.90
2019-05-20T00:43:21.947Z,99.90
2019-05-20T00:45:51.821Z,99.90
2019-05-20T00:48:21.684Z,99.90
2019-05-20T00:50:51.510Z,99.90
2019-05-20T00:53:21.626Z,99.90
2019-05-20T00:55:51.528Z,99.90
2019-05-20T00:58:21.468Z,99.90
2019-05-20T01:00:51.511Z,99.90
2019-05-20T01:03:21.896Z,99.90
2019-05-20T01:05:51.768Z,99.90
2019-05-20T01:08:21.760Z,99.90
2019-05-20T01:10:51.585Z,99.90
2019-05-20T01:13:21.553Z,99.90
2019-05-20T01:15:51.418Z,99.90
2019-05-20T01:18:21.548Z,99.90
2019-05-20T01:20:53.268Z,99.90
2019-05-20T01:23:23.060Z,99.90
2019-05-20T01:25:55.308Z,99.90
2019-05-20T01:28:25.414Z,99.90
2019-05-20T01:30:55.256Z,99.90
2019-05-20T01:33:25.436Z,99.90
2019-05-20T01:35:55.323Z,99.90
2019-05-20T01:38:25.436Z,99.90
2019-05-20T01:40:55.358Z,99.90
2019-05-20T01:43:25.273Z,99.90
2019-05-20T01:45:55.156Z,99.90
2019-05-20T01:48:25.003Z,99.90
2019-05-20T01:50:55.118Z,99.90
2019-05-20T01:53:25.030Z,99.90
2019-05-20T01:55:55.189Z,99.90
2019-05-20T01:58:25.083Z,99.90
2019-05-20T02:00:54.935Z,99.90
2019-05-20T02:03:31.743Z,99.90
2019-05-20T02:05:56.471Z,99.90
2019-05-20T02:08:26.562Z,99.90
2019-05-20T02:10:56.986Z,99.90
2019-05-20T02:13:46.247Z,99.90
2019-05-20T02:16:16.694Z,99.90
2019-05-20T02:18:47.034Z,99.90
2019-05-20T02:21:17.013Z,99.90
2019-05-20T02:23:47.081Z,99.90
2019-05-20T02:26:16.971Z,99.90
2019-05-20T02:28:46.987Z,99.90
2019-05-20T02:31:17.186Z,99.90
2019-05-20T02:33:52.200Z,99.90
2019-05-20T02:36:19.106Z,99.90
2019-05-20T02:38:49.058Z,99.90
2019-05-20T02:41:19.039Z,99.90
2019-05-20T02:43:48.941Z,99.90
2019-05-20T02:46:18.801Z,99.90
2019-05-20T02:48:48.744Z,99.90
2019-05-20T02:51:30.946Z,99.90
2019-05-20T02:54:02.279Z,99.90
2019-05-20T02:56:32.156Z,99.90
2019-05-20T02:59:02.132Z,99.90
2019-05-20T03:01:31.984Z,99.90
2019-05-20T03:04:11.369Z,99.90
2019-05-20T03:06:33.430Z,99.90
2019-05-20T03:09:04.989Z,99.90
2019-05-20T03:11:34.955Z,99.90
2019-05-20T03:14:04.986Z,99.90
2019-05-20T03:16:34.824Z,99.90
2019-05-20T03:19:04.941Z,99.90
2019-05-20T03:21:34.865Z,99.90
2019-05-20T03:24:05.180Z,99.90
2019-05-20T03:26:35.335Z,99.90
2019-05-20T03:29:05.270Z,99.90
2019-05-20T03:31:35.265Z,99.90
2019-05-20T03:34:05.456Z,99.90
2019-05-20T03:36:35.380Z,99.90
2019-05-20T03:39:06.512Z,99.90
2019-05-20T03:41:36.468Z,99.90
2019-05-20T03:44:06.373Z,99.90
2019-05-20T03:46:36.349Z,99.90
2019-05-20T03:49:06.231Z,99.90
2019-05-20T03:51:36.437Z,99.90
2019-05-20T03:54:06.361Z,99.90
2019-05-20T03:56:36.260Z,99.90
2019-05-20T03:59:06.383Z,99.90
2019-05-20T04:01:36.398Z,99.90
2019-05-20T04:04:06.200Z,99.90
2019-05-20T04:06:36.113Z,99.90
2019-05-20T04:09:07.095Z,99.90
2019-05-20T04:11:37.249Z,99.90
2019-05-20T04:14:09.854Z,99.90
2019-05-20T04:16:39.334Z,99.90
2019-05-20T04:19:09.506Z,99.90
2019-05-20T04:21:39.955Z,99.90
2019-05-20T04:24:10.107Z,99.90
2019-05-20T04:26:40.040Z,99.90
2019-05-20T04:29:09.956Z,99.90
2019-05-20T04:31:39.806Z,99.90
2019-05-20T04:34:10.015Z,99.90
2019-05-20T04:36:39.919Z,99.90
2019-05-20T04:39:09.888Z,99.90
2019-05-20T04:41:40.011Z,99.90
2019-05-20T04:44:10.010Z,99.90
2019-05-20T04:46:40.030Z,99.90
2019-05-20T04:49:10.665Z,99.90
2019-05-20T04:51:40.860Z,99.90
2019-05-20T04:54:10.941Z,99.90
2019-05-20T04:56:41.004Z,99.90
2019-05-20T04:59:11.342Z,99.90
2019-05-20T05:01:41.248Z,99.90
2019-05-20T05:04:11.179Z,99.90
2019-05-20T05:06:41.120Z,99.50
2019-05-20T05:09:11.131Z,97.30
2019-05-20T05:11:41.253Z,96.30
2019-05-20T05:14:11.297Z,95.20
2019-05-20T05:16:41.459Z,94.00
2019-05-20T05:19:11.432Z,92.90
2019-05-20T05:21:41.297Z,92.30
2019-05-20T05:24:11.230Z,92.00
2019-05-20T05:26:41.271Z,91.60
2019-05-20T05:29:11.408Z,91.40
2019-05-20T05:31:41.380Z,91.00
2019-05-20T05:34:11.314Z,91.10
2019-05-20T05:36:41.588Z,91.10
2019-05-20T05:39:11.587Z,91.90
2019-05-20T05:41:41.430Z,93.00
2019-05-20T05:44:11.559Z,93.40
2019-05-20T05:46:41.431Z,93.10
2019-05-20T05:49:11.352Z,92.80
2019-05-20T05:51:41.572Z,92.80
2019-05-20T05:54:11.833Z,93.20
2019-05-20T05:56:41.952Z,92.60
2019-05-20T05:59:11.817Z,91.60
2019-05-20T06:01:42.044Z,90.70
2019-05-20T06:04:12.361Z,88.80
2019-05-20T06:06:42.255Z,85.30
2019-05-20T06:09:12.067Z,81.30
2019-05-20T06:11:42.441Z,78.60
2019-05-20T06:14:15.225Z,74.90
2019-05-20T06:16:45.501Z,69.00
2019-05-20T06:19:15.595Z,64.50
2019-05-20T06:21:45.695Z,60.10
2019-05-20T06:24:21.176Z,56.50
2019-05-20T06:26:50.972Z,53.00
2019-05-20T06:29:21.123Z,49.60
2019-05-20T06:31:52.310Z,47.90
2019-05-20T06:34:25.903Z,47.90
2019-05-20T06:36:57.966Z,48.80
2019-05-20T06:39:39.609Z,48.70
2019-05-20T06:42:10.702Z,48.10
2019-05-20T06:44:52.239Z,47.40
2019-05-20T06:47:12.300Z,45.40
2019-05-20T06:49:42.451Z,44.00
2019-05-20T06:52:34.945Z,42.90
2019-05-20T06:54:49.529Z,43.20
2019-05-20T06:57:19.604Z,42.90
2019-05-20T06:59:49.502Z,42.70
2019-05-20T07:02:55.559Z,41.20
2019-05-20T07:05:54.919Z,39.80
2019-05-20T07:08:27.615Z,39.10
2019-05-20T07:10:57.567Z,37.80
2019-05-20T07:13:27.945Z,37.20
2019-05-20T07:15:58.000Z,36.60
2019-05-20T07:18:28.001Z,36.30
2019-05-20T07:20:57.939Z,36.90
2019-05-20T07:23:30.354Z,37.90
2019-05-20T07:26:00.557Z,37.80
2019-05-20T07:28:30.460Z,36.80
2019-05-20T07:31:00.444Z,35.70
2019-05-20T07:33:30.381Z,35.50
2019-05-20T07:36:00.345Z,34.30
2019-05-20T07:38:30.532Z,33.60
2019-05-20T07:41:00.550Z,33.60
2019-05-20T07:43:30.661Z,34.30
2019-05-20T07:46:01.799Z,33.90
2019-05-20T07:48:34.927Z,34.10
2019-05-20T07:51:05.766Z,33.30
2019-05-20T07:53:35.972Z,32.10
2019-05-20T07:56:11.024Z,33.30
2019-05-20T07:58:44.078Z,35.10
2019-05-20T08:01:14.095Z,36.70
2019-05-20T08:03:44.084Z,35.00
2019-05-20T08:06:14.279Z,33.70
2019-05-20T08:08:44.284Z,32.20
2019-05-20T08:11:14.403Z,31.40
2019-05-20T08:13:44.648Z,31.40
2019-05-20T08:16:14.536Z,30.40
2019-05-20T08:18:44.489Z,29.80
2019-05-20T08:21:14.453Z,29.40
2019-05-20T08:23:44.346Z,29.10
2019-05-20T08:26:14.246Z,28.80
2019-05-20T08:28:44.139Z,28.40
2019-05-20T08:31:15.673Z,28.40
2019-05-20T08:33:45.575Z,28.50
2019-05-20T08:36:15.431Z,28.70
2019-05-20T08:38:45.503Z,28.30
2019-05-20T08:41:15.423Z,28.30
2019-05-20T08:43:45.269Z,28.60
2019-05-20T08:46:15.490Z,28.50
2019-05-20T08:48:45.332Z,28.10
2019-05-20T08:51:15.193Z,27.80
2019-05-20T08:53:45.113Z,27.40
2019-05-20T08:56:15.250Z,26.90
2019-05-20T08:58:45.649Z,26.30
2019-05-20T09:01:15.648Z,26.30
2019-05-20T09:03:45.513Z,26.10
2019-05-20T09:06:20.238Z,26.10
2019-05-20T09:08:46.976Z,25.90
2019-05-20T09:11:17.205Z,26.70
2019-05-20T09:13:47.154Z,26.80
2019-05-20T09:16:17.142Z,26.80
2019-05-20T09:18:47.015Z,27.50
2019-05-20T09:21:17.102Z,28.60
2019-05-20T09:23:46.996Z,30.20
2019-05-20T09:26:17.454Z,31.00
2019-05-20T09:28:47.655Z,29.40
2019-05-20T09:31:17.732Z,28.30
2019-05-20T09:33:50.410Z,27.30
2019-05-20T09:36:20.387Z,26.50
2019-05-20T09:38:50.479Z,25.70
2019-05-20T09:41:20.479Z,26.10
2019-05-20T09:43:50.638Z,26.50
2019-05-20T09:46:21.209Z,28.30
2019-05-20T09:48:51.192Z,27.60
2019-05-20T09:51:23.067Z,27.10
2019-05-20T09:53:52.996Z,26.50
2019-05-20T09:56:22.897Z,26.90
2019-05-20T09:58:55.674Z,28.60
2019-05-20T10:01:25.695Z,30.70
2019-05-20T10:03:55.781Z,31.90
2019-05-20T10:06:28.080Z,34.80
2019-05-20T10:08:58.019Z,32.20
2019-05-20T10:11:28.285Z,29.50
2019-05-20T10:13:58.166Z,29.50
2019-05-20T10:16:29.983Z,28.70
2019-05-20T10:18:59.896Z,29.30
2019-05-20T10:21:29.826Z,29.70
2019-05-20T10:24:02.414Z,31.60
2019-05-20T10:26:32.580Z,32.40
2019-05-20T10:29:05.072Z,30.80
2019-05-20T10:31:34.597Z,30.70
2019-05-20T10:34:05.932Z,29.60
2019-05-20T10:36:35.851Z,28.90
2019-05-20T10:39:07.809Z,29.90
2019-05-20T10:41:38.541Z,33.40
2019-05-20T10:44:08.464Z,34.30
2019-05-20T10:46:38.518Z,34.90
2019-05-20T10:49:10.308Z,38.10
2019-05-20T10:51:44.545Z,44.00
2019-05-20T10:54:17.153Z,51.20
2019-05-20T10:56:59.650Z,58.70
2019-05-20T10:59:28.876Z,63.90
2019-05-20T11:01:58.945Z,68.50
2019-05-20T11:04:29.025Z,73.00
2019-05-20T11:06:59.054Z,75.90
2019-05-20T11:09:30.760Z,77.10
2019-05-20T11:12:00.682Z,75.60
2019-05-20T11:14:31.007Z,72.40
2019-05-20T11:17:01.018Z,67.70
2019-05-20T11:19:30.980Z,63.50
2019-05-20T11:22:00.951Z,60.20
2019-05-20T11:24:30.944Z,60.20
2019-05-20T11:27:00.983Z,62.10
2019-05-20T11:29:30.880Z,64.20
2019-05-20T11:32:02.292Z,66.20
2019-05-20T11:34:32.628Z,68.60
2019-05-20T11:37:02.790Z,70.70
2019-05-20T11:39:34.111Z,70.80
2019-05-20T11:42:04.652Z,69.30
2019-05-20T11:44:40.690Z,67.30
2019-05-20T11:47:11.325Z,65.60
2019-05-20T11:49:44.894Z,63.60
2019-05-20T11:52:14.970Z,62.40
2019-05-20T11:54:45.126Z,62.60
2019-05-20T11:57:15.068Z,61.80
2019-05-20T11:59:44.954Z,62.50
2019-05-20T12:02:14.874Z,66.10
2019-05-20T12:04:47.282Z,66.30
2019-05-20T12:07:17.266Z,66.80
2019-05-20T12:09:49.918Z,67.30
2019-05-20T12:12:19.034Z,68.40
2019-05-20T12:14:49.200Z,68.70
2019-05-20T12:17:19.061Z,68.30
2019-05-20T12:19:49.342Z,69.90
2019-05-20T12:22:19.277Z,71.10
2019-05-20T12:24:51.659Z,70.20
2019-05-20T12:27:20.642Z,69.90
2019-05-20T12:29:50.483Z,70.60
2019-05-20T12:32:20.435Z,71.50
2019-05-20T12:34:50.582Z,72.90
2019-05-20T12:37:20.420Z,73.80
2019-05-20T12:40:05.958Z,74.20
2019-05-20T12:42:23.242Z,74.90
2019-05-20T12:44:53.402Z,75.10
2019-05-20T12:47:23.333Z,74.40
2019-05-20T12:49:53.356Z,73.90
2019-05-20T12:52:23.297Z,74.30
2019-05-20T12:55:06.948Z,75.80
2019-05-20T12:57:24.773Z,76.10
2019-05-20T12:59:54.804Z,76.20
2019-05-20T13:02:24.670Z,76.90
2019-05-20T13:04:55.125Z,77.20
2019-05-20T13:07:26.399Z,74.80
2019-05-20T13:09:56.423Z,72.90
2019-05-20T13:12:26.393Z,71.20
2019-05-20T13:14:56.573Z,68.70
2019-05-20T13:17:26.623Z,68.20
2019-05-20T13:19:56.497Z,68.60
2019-05-20T13:22:29.907Z,70.70
2019-05-20T13:25:01.478Z,73.20
2019-05-20T13:27:31.575Z,75.50
2019-05-20T13:30:01.585Z,76.70
2019-05-20T13:32:31.544Z,78.40
2019-05-20T13:35:03.905Z,80.70
2019-05-20T13:37:33.954Z,82.60
2019-05-20T13:40:04.207Z,84.00
2019-05-20T13:42:34.554Z,84.90
2019-05-20T13:45:07.212Z,85.70
2019-05-20T13:47:41.545Z,85.50
2019-05-20T13:50:11.615Z,86.00
2019-05-20T13:52:41.717Z,86.60
2019-05-20T13:55:12.428Z,86.00
2019-05-20T13:57:42.432Z,85.10
2019-05-20T14:00:15.233Z,84.50
2019-05-20T14:02:45.570Z,84.00
2019-05-20T14:05:15.688Z,83.10
2019-05-20T14:07:45.889Z,82.40
2019-05-20T14:10:16.355Z,79.40
2019-05-20T14:12:46.638Z,77.70
2019-05-20T14:15:20.101Z,77.20
2019-05-20T14:17:50.066Z,76.70
2019-05-20T14:20:23.130Z,75.90
2019-05-20T14:22:53.185Z,75.50
2019-05-20T14:25:24.909Z,76.10
2019-05-20T14:27:55.217Z,77.00
2019-05-20T14:30:27.028Z,77.80
2019-05-20T14:32:57.176Z,79.20
2019-05-20T14:35:27.926Z,78.90
2019-05-20T14:38:00.400Z,78.10
2019-05-20T14:40:30.323Z,78.30
2019-05-20T14:43:00.643Z,79.10
2019-05-20T14:45:32.228Z,79.80
2019-05-20T14:48:02.464Z,79.60
2019-05-20T14:50:34.266Z,78.60
2019-05-20T14:53:05.924Z,79.00
2019-05-20T14:55:42.561Z,80.10
2019-05-20T14:58:53.022Z,81.10
2019-05-20T15:01:27.927Z,82.70
2019-05-20T15:04:02.485Z,83.50
2019-05-20T15:06:38.014Z,83.80
2019-05-20T15:09:08.133Z,84.90
2019-05-20T15:11:38.979Z,86.90
2019-05-20T15:14:10.776Z,87.10
2019-05-20T15:16:40.817Z,86.00
2019-05-20T15:19:10.767Z,86.50
2019-05-20T15:21:40.639Z,86.90
2019-05-20T15:24:10.890Z,87.70
2019-05-20T15:26:40.982Z,87.70
2019-05-20T15:29:26.914Z,87.70
2019-05-20T15:31:42.920Z,87.70
2019-05-20T15:34:12.897Z,87.00
2019-05-20T15:36:42.880Z,86.30
2019-05-20T15:39:12.781Z,86.40
2019-05-20T15:41:43.274Z,86.20
2019-05-20T15:44:13.309Z,86.20
2019-05-20T15:46:43.223Z,86.60
2019-05-20T15:49:13.229Z,87.00
2019-05-20T15:51:43.208Z,87.60
2019-05-20T15:54:13.419Z,88.10
2019-05-20T15:56:43.419Z,88.80
2019-05-20T15:59:13.398Z,89.60
2019-05-20T16:01:45.113Z,90.40
2019-05-20T16:04:15.762Z,91.10
2019-05-20T16:06:45.721Z,91.70
2019-05-20T16:09:17.306Z,91.80
2019-05-20T16:11:47.618Z,92.90
2019-05-20T16:14:39.026Z,93.50
2019-05-20T16:17:09.608Z,93.80
2019-05-20T16:19:45.668Z,94.30
2019-05-20T16:22:15.738Z,94.40
2019-05-20T16:24:47.422Z,92.60
2019-05-20T16:27:43.900Z,92.50
2019-05-20T16:30:20.715Z,92.20
2019-05-20T16:32:58.461Z,91.20
2019-05-20T16:35:32.240Z,90.90
2019-05-20T16:38:05.092Z,90.90
2019-05-20T16:40:35.659Z,90.90
2019-05-20T16:43:13.063Z,90.90
2019-05-20T16:45:43.792Z,91.20
2019-05-20T16:48:43.080Z,91.10
2019-05-20T16:51:14.011Z,91.20
2019-05-20T16:53:51.427Z,91.20
2019-05-20T16:56:33.998Z,90.80
2019-05-20T16:59:07.167Z,87.70
2019-05-20T17:01:45.964Z,86.20
2019-05-20T17:04:09.154Z,86.00
2019-05-20T17:07:08.702Z,86.00
2019-05-20T17:09:47.398Z,86.20
2019-05-20T17:12:17.381Z,86.30
2019-05-20T17:14:59.752Z,86.90
2019-05-20T17:17:34.003Z,87.90
2019-05-20T17:20:04.326Z,89.20
2019-05-20T17:22:45.849Z,90.20
2019-05-20T17:25:16.336Z,90.60
2019-05-20T17:27:46.366Z,90.60
2019-05-20T17:30:44.466Z,91.10
2019-05-20T17:33:03.212Z,90.90
2019-05-20T17:35:33.597Z,91.40
2019-05-20T17:38:12.639Z,91.90
2019-05-20T17:40:52.893Z,92.10
2019-05-20T17:43:36.446Z,92.70
2019-05-20T17:46:12.252Z,92.90
2019-05-20T17:48:51.651Z,93.40
2019-05-20T17:51:35.417Z,93.40
2019-05-20T17:54:07.105Z,93.50
2019-05-20T17:56:37.098Z,93.80
2019-05-20T17:59:07.042Z,94.00
2019-05-20T18:01:36.896Z,94.20
2019-05-20T18:04:07.433Z,94.50
2019-05-20T18:06:38.528Z,94.70
2019-05-20T18:09:08.800Z,94.90
2019-05-20T18:11:44.269Z,95.20
2019-05-20T18:14:54.891Z,95.60
2019-05-20T18:25:11.993Z,96.50
2019-05-20T18:29:55.534Z,96.70
2019-05-20T18:31:32.444Z,97.20
2019-05-20T18:49:41.355Z,99.90
2019-05-20T18:52:18.281Z,99.90
2019-05-20T19:02:05.486Z,99.90
2019-05-20T19:08:32.299Z,99.90
2019-05-20T19:08:39.829Z,99.90
2019-05-20T19:15:06.933Z,99.90
2019-05-20T19:17:50.003Z,99.90
2019-05-20T19:20:23.227Z,99.90
2019-05-20T19:23:17.234Z,99.90
2019-05-20T19:25:53.071Z,99.90
2019-05-20T19:28:27.768Z,99.90
2019-05-20T19:31:11.798Z,99.90
2019-05-20T19:34:10.180Z,99.90
2019-05-20T19:37:23.616Z,99.90
2019-05-20T19:40:22.422Z,99.90
2019-05-20T19:43:58.857Z,99.90
2019-05-20T19:46:32.131Z,99.90
2019-05-20T19:50:02.785Z,99.90
2019-05-20T20:03:13.899Z,99.90
2019-05-20T20:05:53.616Z,99.90
2019-05-20T20:08:27.672Z,99.90
2019-05-20T20:08:56.384Z,99.90
2019-05-20T20:11:40.545Z,99.90
2019-05-20T20:14:16.123Z,99.90
2019-05-20T20:20:01.303Z,99.90
2019-05-20T20:22:32.326Z,99.90
2019-05-20T20:25:11.426Z,99.90
2019-05-20T20:27:50.118Z,99.90
2019-05-20T20:30:26.811Z,99.90
2019-05-20T20:33:07.691Z,99.90
2019-05-20T20:35:39.513Z,99.90
2019-05-20T20:38:10.403Z,99.90
2019-05-20T20:40:45.627Z,99.90
2019-05-20T20:43:22.380Z,99.90
2019-05-20T20:45:55.248Z,99.90
2019-05-20T20:48:26.964Z,99.90
2019-05-20T20:51:01.503Z,99.90
2019-05-20T20:53:31.689Z,99.90
2019-05-20T20:56:02.041Z,99.90
2019-05-20T20:58:32.075Z,99.90
2019-05-20T21:01:02.034Z,99.90
2019-05-20T21:03:32.692Z,99.90
2019-05-20T21:06:02.561Z,99.90
2019-05-20T21:08:32.520Z,99.90
2019-05-20T21:11:05.004Z,99.90
2019-05-20T21:13:35.161Z,99.90
2019-05-20T21:16:06.676Z,99.90
2019-05-20T21:18:45.837Z,99.90
2019-05-20T21:21:15.791Z,99.90
2019-05-20T21:23:45.712Z,99.90
2019-05-20T21:26:15.912Z,99.90
2019-05-20T21:28:52.675Z,99.90
2019-05-20T21:31:21.060Z,99.90
2019-05-20T21:33:51.292Z,99.90
2019-05-20T21:36:23.100Z,99.90
2019-05-20T21:39:05.624Z,99.90
2019-05-20T21:41:35.488Z,99.90
2019-05-20T21:44:05.528Z,99.90
2019-05-20T21:46:36.937Z,99.90
2019-05-20T21:49:06.852Z,99.90
2019-05-20T21:51:37.173Z,99.90
2019-05-20T21:54:07.137Z,99.90
2019-05-20T21:56:37.269Z,99.90
2019-05-20T21:59:07.216Z,99.90
2019-05-20T22:01:37.215Z,99.90
2019-05-20T22:04:07.191Z,99.90
2019-05-20T22:06:38.663Z,99.90
2019-05-20T22:09:08.619Z,99.90
2019-05-20T22:11:38.553Z,99.90
2019-05-20T22:14:08.675Z,99.90
2019-05-20T22:16:39.247Z,99.90
2019-05-20T22:19:09.221Z,99.90
2019-05-20T22:21:52.443Z,99.90
2019-05-20T22:24:22.719Z,99.90
2019-05-20T22:26:52.627Z,99.90
2019-05-20T22:29:22.581Z,99.90
2019-05-20T22:31:52.904Z,99.90
2019-05-20T22:34:25.874Z,99.90
2019-05-20T22:36:57.508Z,99.90
2019-05-20T22:39:29.550Z,99.90
2019-05-20T22:41:59.520Z,99.90
2019-05-20T22:44:29.424Z,99.90
2019-05-20T22:47:01.760Z,99.90
2019-05-20T22:49:32.184Z,99.90
2019-05-20T22:52:03.382Z,99.90
2019-05-20T22:54:33.901Z,99.90
2019-05-20T22:57:03.955Z,99.90
2019-05-20T22:59:37.109Z,99.90
2019-05-20T23:02:07.410Z,99.90
2019-05-20T23:04:37.416Z,99.90
2019-05-20T23:07:10.259Z,99.90
2019-05-20T23:09:40.232Z,99.90
2019-05-20T23:12:11.590Z,99.90
2019-05-20T23:14:41.601Z,99.90
2019-05-20T23:17:13.600Z,99.90
2019-05-20T23:19:43.572Z,99.90
2019-05-20T23:22:14.439Z,99.90
2019-05-20T23:24:44.356Z,99.90
2019-05-20T23:27:14.397Z,99.90
2019-05-20T23:29:44.574Z,99.90
2019-05-20T23:32:17.354Z,99.90
2019-05-20T23:35:08.565Z,99.90
2019-05-20T23:37:40.372Z,99.90
2019-05-20T23:40:10.967Z,99.90
2019-05-20T23:42:41.256Z,99.90
2019-05-20T23:45:11.892Z,99.90
2019-05-20T23:47:42.105Z,99.90
2019-05-20T23:50:12.823Z,99.90
2019-05-20T23:52:42.871Z,99.90
2019-05-20T23:55:13.372Z,99.90
2019-05-20T23:57:44.079Z,99.90
